Estación Meteorológica Peña el Pijo (Robertgarden) [ 11/24/17 15:39:30 CET ]

Fecha Hora Presion(HPa) Temp (°C) Humedad % Rocio (°C) Viento ( m/s) Direccion Lluvia 1Hora(mm) Lluvia 24H(mm) LLuvia Total(mm)
2017-Apr-16 01:01:46 1012.700 11.4 56 2.9         1357.67
2017-Apr-16 02:01:56 1012.800 11.1 59 3.3         1357.67
2017-Apr-16 03:07:02 1012.700 11.6 59 3.8         1357.67
2017-Apr-16 04:01:46 1012.200 10.6 62 3.6         1357.67
2017-Apr-16 05:01:54 1012.400 9.3 65 3.0         1357.67
2017-Apr-16 06:01:47 1012.300 7.5 70 2.4         1357.67
2017-Apr-16 07:01:55 1012.700 6.3 74 2.0         1357.67
2017-Apr-16 08:01:33 1013.100 5.6 76 1.7         1357.67
2017-Apr-16 09:01:24 1013.400 11.4 73 6.7         1357.67
2017-Apr-16 10:01:27 1013.300 17.2 56 8.3         1357.67
2017-Apr-16 11:01:42 1013.000 19.8 48 8.5         1357.67
2017-Apr-16 12:01:46 1013.100 22.2 43 9.0         1357.67
2017-Apr-16 13:01:37 1012.800 23.6 40 9.2 2.1 ENE     1357.67
2017-Apr-16 14:01:44 1012.200 23.6 39 8.8 0.3 E     1357.67
2017-Apr-16 15:01:54 1012.100 24.6 36 8.5         1357.67
2017-Apr-16 16:01:56 1011.400 24.9 36 8.7 2.4 S     1357.67
2017-Apr-16 17:01:52 1011.000 23.3 39 8.5         1357.67
2017-Apr-16 18:01:43 1010.700 22.8 42 9.2         1357.67
2017-Apr-16 19:01:50 1010.600 21.4 47 9.6         1357.67
2017-Apr-16 20:01:43 1010.600 20.9 49 9.8         1357.67
2017-Apr-16 21:01:46 1010.800 19.2 55 9.9         1357.67
2017-Apr-16 22:01:52 1011.700 16.3 66 9.9         1357.67
2017-Apr-16 23:01:30 1012.200 14.5 71 9.3         1357.67

Temperatura Máxima:24°    Temperatura Mínima:
Presión Máxima:1013.400 Hpa    Presión Mínima:1010.600 Hpa


Volver